createdAt,value
2023-04-03T00:01:51.233Z,3.40
2023-04-03T00:04:14.824Z,4.80
2023-04-03T00:06:26.147Z,2.77
2023-04-03T00:08:42.429Z,3.53
2023-04-03T00:10:55.583Z,4.73
2023-04-03T00:13:17.874Z,2.93
2023-04-03T00:15:29.714Z,4.20
2023-04-03T00:17:46.260Z,6.63
2023-04-03T00:19:57.125Z,2.03
2023-04-03T00:22:13.912Z,3.60
2023-04-03T00:24:27.865Z,4.40
2023-04-03T00:26:39.709Z,6.80
2023-04-03T00:28:53.401Z,3.57
2023-04-03T00:31:07.218Z,5.67
2023-04-03T00:33:24.006Z,3.17
2023-04-03T00:35:35.257Z,3.60
2023-04-03T00:37:53.572Z,3.50
2023-04-03T00:40:06.737Z,4.43
2023-04-03T00:42:22.897Z,3.63
2023-04-03T00:44:53.527Z,6.43
2023-04-03T00:47:21.239Z,2.37
2023-04-03T00:49:41.458Z,4.47
2023-04-03T00:51:53.403Z,3.67
2023-04-03T00:54:08.237Z,6.03
2023-04-03T00:56:18.898Z,4.70
2023-04-03T00:58:38.295Z,4.70
2023-04-03T01:00:50.263Z,4.13
2023-04-03T01:03:00.955Z,4.43
2023-04-03T01:05:10.587Z,4.63
2023-04-03T01:07:20.720Z,5.47
2023-04-03T01:09:29.593Z,1.80
2023-04-03T01:11:38.278Z,4.87
2023-04-03T01:13:47.196Z,2.87
2023-04-03T01:15:56.636Z,4.13
2023-04-03T01:18:07.725Z,1.37
2023-04-03T01:20:43.843Z,3.17
2023-04-03T01:22:57.833Z,2.87
2023-04-03T01:25:07.098Z,4.87
2023-04-03T01:27:16.590Z,4.47
2023-04-03T01:29:25.594Z,6.47
2023-04-03T01:31:37.620Z,5.90
2023-04-03T01:33:47.975Z,4.27
2023-04-03T01:35:57.234Z,4.40
2023-04-03T01:38:06.304Z,4.00
2023-04-03T01:40:15.157Z,4.87
2023-04-03T01:42:24.257Z,5.97
2023-04-03T01:44:33.713Z,3.33
2023-04-03T01:46:44.245Z,3.07
2023-04-03T01:48:54.850Z,2.80
2023-04-03T01:51:03.459Z,1.67
2023-04-03T01:53:12.329Z,5.80
2023-04-03T01:55:21.183Z,1.10
2023-04-03T01:57:30.438Z,4.67
2023-04-03T01:59:39.398Z,9.00
2023-04-03T02:01:48.428Z,2.13
2023-04-03T02:03:59.178Z,6.70
2023-04-03T02:06:08.564Z,4.43
2023-04-03T02:08:19.108Z,3.93
2023-04-03T02:10:28.368Z,3.00
2023-04-03T02:12:37.543Z,7.07
2023-04-03T02:14:46.494Z,5.00
2023-04-03T02:16:56.030Z,4.77
2023-04-03T02:19:06.751Z,3.30
2023-04-03T02:21:17.673Z,4.57
2023-04-03T02:23:26.617Z,3.87
2023-04-03T02:25:38.495Z,4.57
2023-04-03T02:27:47.457Z,4.70
2023-04-03T02:29:56.517Z,2.87
2023-04-03T02:32:05.928Z,4.83
2023-04-03T02:34:17.090Z,1.10
2023-04-03T02:36:26.261Z,3.67
2023-04-03T02:38:35.052Z,4.73
2023-04-03T02:40:44.174Z,3.13
2023-04-03T02:42:53.014Z,6.17
2023-04-03T02:45:02.682Z,6.43
2023-04-03T02:47:11.537Z,2.40
2023-04-03T02:49:21.533Z,4.33
2023-04-03T02:51:30.059Z,7.43
2023-04-03T02:53:39.146Z,3.77
2023-04-03T02:55:48.154Z,5.47
2023-04-03T02:57:57.086Z,3.73
2023-04-03T03:00:06.448Z,2.73
2023-04-03T03:02:15.528Z,5.67
2023-04-03T03:04:26.034Z,4.43
2023-04-03T03:06:35.254Z,7.83
2023-04-03T03:08:45.331Z,3.57
2023-04-03T03:10:54.073Z,4.37
2023-04-03T03:13:02.841Z,2.50
2023-04-03T03:15:12.021Z,4.03
2023-04-03T03:17:21.397Z,4.70
2023-04-03T03:19:32.055Z,4.60
2023-04-03T03:21:40.743Z,3.80
2023-04-03T03:23:49.676Z,5.97
2023-04-03T03:25:59.692Z,4.80
2023-04-03T03:28:08.441Z,4.10
2023-04-03T03:30:17.196Z,5.03
2023-04-03T03:32:26.219Z,6.20
2023-04-03T03:34:36.557Z,2.30
2023-04-03T03:36:45.942Z,4.93
2023-04-03T03:38:54.985Z,4.10
2023-04-03T03:41:04.124Z,5.67
2023-04-03T03:43:13.054Z,7.00
2023-04-03T03:45:21.878Z,6.50
2023-04-03T03:47:31.036Z,7.47
2023-04-03T03:49:42.124Z,5.27
2023-04-03T03:51:51.189Z,3.97
2023-04-03T03:54:00.336Z,1.07
2023-04-03T03:56:09.163Z,3.30
2023-04-03T03:58:18.034Z,5.70
2023-04-03T04:00:27.065Z,8.37
2023-04-03T04:02:36.023Z,7.43
2023-04-03T04:04:46.956Z,4.97
2023-04-03T04:06:56.308Z,4.07
2023-04-03T04:09:05.514Z,2.70
2023-04-03T04:11:14.601Z,5.17
2023-04-03T04:13:24.995Z,5.50
2023-04-03T04:15:33.654Z,1.93
2023-04-03T04:17:42.271Z,5.77
2023-04-03T04:19:52.748Z,3.70
2023-04-03T04:22:01.738Z,8.43
2023-04-03T04:24:10.629Z,3.50
2023-04-03T04:26:19.253Z,7.50
2023-04-03T04:28:28.316Z,4.27
2023-04-03T04:30:36.824Z,5.33
2023-04-03T04:32:45.953Z,1.90
2023-04-03T04:34:56.519Z,4.27
2023-04-03T04:37:05.264Z,2.90
2023-04-03T04:39:14.016Z,7.90
2023-04-03T04:41:24.061Z,3.80
2023-04-03T04:43:33.094Z,3.13
2023-04-03T04:45:41.999Z,5.53
2023-04-03T04:47:52.752Z,3.33
2023-04-03T04:50:02.988Z,5.77
2023-04-03T04:52:12.050Z,2.50
2023-04-03T04:54:20.945Z,3.40
2023-04-03T04:56:29.932Z,3.53
2023-04-03T04:58:39.442Z,4.90
2023-04-03T05:00:48.075Z,4.00
2023-04-03T05:02:57.230Z,2.20
2023-04-03T05:05:08.681Z,2.60
2023-04-03T05:07:17.580Z,5.03
2023-04-03T05:09:26.820Z,2.07
2023-04-03T05:11:35.881Z,5.13
2023-04-03T05:13:44.588Z,8.70
2023-04-03T05:15:53.746Z,4.60
2023-04-03T05:18:02.421Z,4.57
2023-04-03T05:20:13.653Z,7.43
2023-04-03T05:22:22.916Z,7.50
2023-04-03T05:24:32.106Z,10.03
2023-04-03T05:26:41.402Z,3.73
2023-04-03T05:28:50.458Z,7.00
2023-04-03T05:30:59.905Z,3.90
2023-04-03T05:33:08.778Z,7.23
2023-04-03T05:35:19.171Z,5.03
2023-04-03T05:37:28.408Z,6.10
2023-04-03T05:39:39.434Z,10.77
2023-04-03T05:41:48.210Z,5.40
2023-04-03T05:43:57.368Z,4.50
2023-04-03T05:46:06.635Z,2.93
2023-04-03T05:48:15.285Z,4.27
2023-04-03T05:50:25.745Z,5.60
2023-04-03T05:52:36.092Z,3.53
2023-04-03T05:54:45.512Z,3.10
2023-04-03T05:56:54.828Z,4.00
2023-04-03T05:59:03.837Z,7.10
2023-04-03T06:01:13.188Z,5.30
2023-04-03T06:03:22.793Z,6.73
2023-04-03T06:05:33.350Z,5.07
2023-04-03T06:07:41.926Z,2.77
2023-04-03T06:09:50.629Z,4.83
2023-04-03T06:11:59.951Z,4.67
2023-04-03T06:14:09.133Z,4.17
2023-04-03T06:16:18.897Z,4.80
2023-04-03T06:18:28.200Z,8.50
2023-04-03T06:20:38.928Z,6.13
2023-04-03T06:22:47.632Z,5.53
2023-04-03T06:24:56.453Z,7.40
2023-04-03T06:27:05.253Z,11.03
2023-04-03T06:29:14.211Z,6.67
2023-04-03T06:31:23.202Z,4.70
2023-04-03T06:33:32.071Z,4.23
2023-04-03T06:35:42.288Z,6.33
2023-04-03T06:37:50.864Z,5.37
2023-04-03T06:40:00.597Z,8.20
2023-04-03T06:42:09.306Z,1.57
2023-04-03T06:44:18.015Z,6.27
2023-04-03T06:46:27.121Z,3.73
2023-04-03T06:48:35.949Z,4.67
2023-04-03T06:50:46.795Z,2.77
2023-04-03T06:52:55.509Z,3.83
2023-04-03T06:55:04.752Z,5.40
2023-04-03T06:57:13.770Z,4.27
2023-04-03T06:59:22.487Z,2.97
2023-04-03T07:01:32.891Z,4.30
2023-04-03T07:03:41.746Z,9.67
2023-04-03T07:05:51.769Z,3.07
2023-04-03T07:08:01.854Z,3.33
2023-04-03T07:10:11.602Z,5.80
2023-04-03T07:12:20.592Z,5.00
2023-04-03T07:14:29.775Z,9.53
2023-04-03T07:16:40.852Z,7.63
2023-04-03T07:18:51.367Z,12.07
2023-04-03T07:21:01.535Z,6.23
2023-04-03T07:23:10.952Z,7.07
2023-04-03T07:25:19.745Z,7.23
2023-04-03T07:27:28.452Z,5.20
2023-04-03T07:29:37.712Z,7.37
2023-04-03T07:31:46.346Z,6.27
2023-04-03T07:33:55.564Z,2.57
2023-04-03T07:36:08.369Z,5.43
2023-04-03T07:38:18.102Z,2.33
2023-04-03T07:40:27.014Z,3.20
2023-04-03T07:42:36.177Z,2.77
2023-04-03T07:44:45.252Z,5.37
2023-04-03T07:46:54.012Z,2.03
2023-04-03T07:49:03.256Z,2.87
2023-04-03T07:51:14.241Z,5.97
2023-04-03T07:53:22.785Z,2.73
2023-04-03T07:55:33.028Z,5.07
2023-04-03T07:57:43.945Z,4.67
2023-04-03T07:59:52.966Z,4.63
2023-04-03T08:02:02.145Z,5.43
2023-04-03T08:04:11.672Z,3.77
2023-04-03T08:06:33.058Z,6.87
2023-04-03T08:08:50.991Z,4.63
2023-04-03T08:11:01.485Z,4.53
2023-04-03T08:13:10.844Z,4.07
2023-04-03T08:15:19.848Z,4.90
2023-04-03T08:17:29.070Z,4.30
2023-04-03T08:19:38.176Z,3.10
2023-04-03T08:21:48.515Z,2.20
2023-04-03T08:23:57.494Z,4.17
2023-04-03T08:26:10.327Z,4.27
2023-04-03T08:28:19.009Z,3.77
2023-04-03T08:30:27.982Z,5.83
2023-04-03T08:32:37.092Z,1.93
2023-04-03T08:34:45.725Z,2.30
2023-04-03T08:36:55.811Z,1.73
2023-04-03T08:39:04.644Z,5.37
2023-04-03T08:41:16.645Z,3.27
2023-04-03T08:43:33.853Z,5.87
2023-04-03T08:45:48.162Z,4.90
2023-04-03T08:48:01.909Z,5.10
2023-04-03T08:50:15.040Z,4.27
2023-04-03T08:52:28.768Z,3.10
2023-04-03T08:54:40.642Z,1.30
2023-04-03T08:56:50.050Z,3.37
2023-04-03T08:58:59.906Z,3.73
2023-04-03T09:01:13.714Z,2.57
2023-04-03T09:03:23.246Z,3.93
2023-04-03T09:05:37.125Z,2.80
2023-04-03T09:07:50.039Z,4.87
2023-04-03T09:10:00.904Z,2.90
2023-04-03T09:12:16.232Z,4.90
2023-04-03T09:14:28.820Z,6.70
2023-04-03T09:16:42.642Z,2.47
2023-04-03T09:18:54.880Z,5.53
2023-04-03T09:21:08.787Z,5.33
2023-04-03T09:23:21.901Z,4.40
2023-04-03T09:25:36.527Z,1.77
2023-04-03T09:27:45.794Z,1.53
2023-04-03T09:29:57.318Z,3.80
2023-04-03T09:32:11.822Z,2.67
2023-04-03T09:34:24.541Z,3.17
2023-04-03T09:36:43.715Z,4.83
2023-04-03T09:39:07.596Z,5.03
2023-04-03T09:41:19.362Z,7.90
2023-04-03T09:43:35.784Z,2.93
2023-04-03T09:45:45.044Z,3.43
2023-04-03T09:48:10.410Z,4.03
2023-04-03T09:50:24.323Z,2.87
2023-04-03T09:52:34.537Z,6.83
2023-04-03T09:54:45.154Z,5.67
2023-04-03T09:56:54.803Z,3.73
2023-04-03T09:59:15.069Z,5.03
2023-04-03T10:01:25.729Z,2.07
2023-04-03T10:03:36.006Z,2.67
2023-04-03T10:05:44.894Z,2.13
2023-04-03T10:08:01.808Z,6.07
2023-04-03T10:10:24.156Z,3.17
2023-04-03T10:12:32.929Z,1.03
2023-04-03T10:14:42.326Z,3.07
2023-04-03T10:16:53.826Z,1.70
2023-04-03T10:19:08.414Z,2.70
2023-04-03T10:21:27.181Z,4.33
2023-04-03T10:23:42.052Z,3.20
2023-04-03T10:25:58.352Z,1.70
2023-04-03T10:28:09.533Z,1.87
2023-04-03T10:30:24.543Z,1.80
2023-04-03T10:32:49.410Z,0.50
2023-04-03T10:35:05.094Z,2.83
2023-04-03T10:37:17.383Z,8.57
2023-04-03T10:39:31.918Z,3.43
2023-04-03T10:41:51.494Z,2.20
2023-04-03T10:44:07.030Z,1.33
2023-04-03T10:46:18.303Z,4.20
2023-04-03T10:48:42.426Z,2.63
2023-04-03T10:50:55.158Z,4.03
2023-04-03T10:53:07.283Z,1.43
2023-04-03T10:55:25.989Z,5.83
2023-04-03T10:57:36.395Z,1.80
2023-04-03T10:59:46.717Z,1.57
2023-04-03T11:01:57.278Z,2.93
2023-04-03T11:04:09.083Z,1.43
2023-04-03T11:06:19.418Z,3.23
2023-04-03T11:08:31.197Z,2.00
2023-04-03T11:10:43.591Z,4.10
2023-04-03T11:12:56.188Z,2.77
2023-04-03T11:15:06.900Z,1.63
2023-04-03T11:17:19.453Z,1.80
2023-04-03T11:19:34.250Z,1.70
2023-04-03T11:21:44.457Z,2.00
2023-04-03T11:23:54.984Z,1.00
2023-04-03T11:26:11.810Z,2.63
2023-04-03T11:28:22.430Z,2.87
2023-04-03T11:30:33.428Z,6.57
2023-04-03T11:32:55.773Z,2.23
2023-04-03T11:35:05.728Z,5.17
2023-04-03T11:37:17.715Z,3.17
2023-04-03T11:39:28.792Z,2.27
2023-04-03T11:41:37.781Z,1.10
2023-04-03T11:43:59.591Z,2.40
2023-04-03T11:46:09.168Z,1.73
2023-04-03T11:48:34.167Z,2.33
2023-04-03T11:50:45.346Z,3.50
2023-04-03T11:53:01.796Z,1.40
2023-04-03T11:55:25.775Z,1.17
2023-04-03T11:57:48.778Z,1.60
2023-04-03T11:59:59.507Z,2.40
2023-04-03T12:02:31.612Z,4.40
2023-04-03T12:04:43.279Z,1.93
2023-04-03T12:06:54.845Z,1.80
2023-04-03T12:09:04.272Z,4.27
2023-04-03T12:11:27.614Z,6.63
2023-04-03T12:13:36.779Z,4.93
2023-04-03T12:16:04.632Z,2.03
2023-04-03T12:18:32.452Z,1.33
2023-04-03T12:21:06.186Z,1.77
2023-04-03T12:23:27.455Z,3.07
2023-04-03T12:25:51.565Z,5.40
2023-04-03T12:28:00.356Z,3.37
2023-04-03T12:30:15.724Z,3.23
2023-04-03T12:32:30.371Z,1.57
2023-04-03T12:34:49.726Z,2.53
2023-04-03T12:37:03.342Z,1.07
2023-04-03T12:39:24.267Z,5.13
2023-04-03T12:41:38.057Z,2.60
2023-04-03T12:43:52.263Z,0.77
2023-04-03T12:46:03.291Z,1.57
2023-04-03T12:48:17.071Z,0.57
2023-04-03T12:50:31.491Z,3.13
2023-04-03T12:52:43.497Z,0.90
2023-04-03T12:54:52.832Z,1.93
2023-04-03T12:57:15.047Z,2.00
2023-04-03T12:59:24.804Z,1.13
2023-04-03T13:01:33.537Z,4.23
2023-04-03T13:03:43.514Z,3.30
2023-04-03T13:05:54.381Z,2.37
2023-04-03T13:08:04.461Z,3.40
2023-04-03T13:10:18.197Z,2.43
2023-04-03T13:12:27.271Z,2.43
2023-04-03T13:14:36.769Z,1.17
2023-04-03T13:16:47.147Z,4.27
2023-04-03T13:18:56.378Z,2.70
2023-04-03T13:21:09.916Z,2.60
2023-04-03T13:23:21.713Z,4.53
2023-04-03T13:25:32.551Z,0.73
2023-04-03T13:27:43.811Z,1.83
2023-04-03T13:29:55.520Z,2.10
2023-04-03T13:32:05.253Z,1.17
2023-04-03T13:34:15.577Z,1.40
2023-04-03T13:36:28.338Z,2.73
2023-04-03T13:38:38.015Z,5.90
2023-04-03T13:40:53.681Z,3.37
2023-04-03T13:43:04.358Z,1.10
2023-04-03T13:45:18.967Z,3.17
2023-04-03T13:47:28.180Z,1.00
2023-04-03T13:49:38.338Z,0.60
2023-04-03T13:51:54.182Z,0.93
2023-04-03T13:54:21.365Z,2.60
2023-04-03T13:56:33.459Z,1.87
2023-04-03T13:58:42.918Z,1.53
2023-04-03T14:00:53.298Z,0.70
2023-04-03T14:03:02.310Z,1.27
2023-04-03T14:05:11.371Z,2.43
2023-04-03T14:07:22.742Z,2.13
2023-04-03T14:09:32.441Z,1.90
2023-04-03T14:11:41.483Z,0.80
2023-04-03T14:13:51.390Z,1.53
2023-04-03T14:16:15.221Z,0.70
2023-04-03T14:18:25.658Z,1.60
2023-04-03T14:20:34.883Z,1.50
2023-04-03T14:22:45.527Z,1.33
2023-04-03T14:24:55.264Z,2.00
2023-04-03T14:27:04.180Z,2.27
2023-04-03T14:29:13.397Z,2.00
2023-04-03T14:31:23.033Z,2.83
2023-04-03T14:33:35.517Z,3.37
2023-04-03T14:35:44.557Z,1.50
2023-04-03T14:37:55.348Z,1.30
2023-04-03T14:40:05.885Z,3.17
2023-04-03T14:42:16.499Z,1.37
2023-04-03T14:44:25.680Z,2.57
2023-04-03T14:46:54.276Z,5.07
2023-04-03T14:49:08.572Z,1.10
2023-04-03T14:51:18.681Z,1.40
2023-04-03T14:53:38.968Z,2.57
2023-04-03T14:55:48.698Z,1.13
2023-04-03T14:57:57.818Z,2.90
2023-04-03T15:00:07.801Z,2.17
2023-04-03T15:02:41.734Z,1.13
2023-04-03T15:04:52.228Z,6.77
2023-04-03T15:07:02.552Z,1.67
2023-04-03T15:09:20.509Z,1.20
2023-04-03T15:11:29.119Z,2.97
2023-04-03T15:13:38.337Z,0.73
2023-04-03T15:15:47.380Z,3.67
2023-04-03T15:17:59.281Z,2.40
2023-04-03T15:20:14.808Z,1.93
2023-04-03T15:22:23.674Z,1.37
2023-04-03T15:24:34.356Z,1.53
2023-04-03T15:26:43.542Z,3.27
2023-04-03T15:28:52.269Z,1.30
2023-04-03T15:31:01.317Z,4.13
2023-04-03T15:33:10.236Z,3.23
2023-04-03T15:35:20.571Z,2.50
2023-04-03T15:37:29.658Z,2.33
2023-04-03T15:39:40.659Z,1.43
2023-04-03T15:41:50.302Z,1.60
2023-04-03T15:43:59.628Z,2.73
2023-04-03T15:46:09.089Z,2.10
2023-04-03T15:48:18.122Z,2.17
2023-04-03T15:50:26.997Z,4.07
2023-04-03T15:52:35.481Z,2.70
2023-04-03T15:54:45.909Z,1.10
2023-04-03T15:56:54.802Z,5.17
2023-04-03T15:59:05.229Z,2.20
2023-04-03T16:01:14.544Z,1.40
2023-04-03T16:03:25.664Z,0.83
2023-04-03T16:05:34.848Z,3.03
2023-04-03T16:07:43.652Z,3.30
2023-04-03T16:09:54.697Z,2.37
2023-04-03T16:12:03.350Z,4.03
2023-04-03T16:14:13.054Z,4.13
2023-04-03T16:16:21.964Z,1.47
2023-04-03T16:18:31.770Z,1.83
2023-04-03T16:20:41.191Z,1.83
2023-04-03T16:22:50.542Z,3.20
2023-04-03T16:25:01.540Z,2.63
2023-04-03T16:27:10.654Z,4.47
2023-04-03T16:29:19.707Z,2.27
2023-04-03T16:31:29.402Z,1.97
2023-04-03T16:33:38.702Z,1.67
2023-04-03T16:35:49.273Z,1.87
2023-04-03T16:37:58.049Z,3.00
2023-04-03T16:40:10.331Z,2.30
2023-04-03T16:42:18.914Z,0.83
2023-04-03T16:44:27.706Z,1.70
2023-04-03T16:46:36.535Z,1.90
2023-04-03T16:48:45.640Z,1.00
2023-04-03T16:50:54.572Z,1.23
2023-04-03T16:53:04.089Z,1.10
2023-04-03T16:55:14.246Z,2.47
2023-04-03T16:57:22.899Z,2.40
2023-04-03T16:59:31.875Z,2.97
2023-04-03T17:01:40.959Z,2.80
2023-04-03T17:03:50.101Z,2.73
2023-04-03T17:05:59.767Z,0.60
2023-04-03T17:08:08.941Z,5.07
2023-04-03T17:10:19.283Z,1.30
2023-04-03T17:12:28.290Z,0.80
2023-04-03T17:14:37.276Z,1.57
2023-04-03T17:16:46.446Z,2.17
2023-04-03T17:18:55.768Z,2.17
2023-04-03T17:21:05.453Z,2.87
2023-04-03T17:23:14.453Z,2.63
2023-04-03T17:25:24.694Z,3.73
2023-04-03T17:27:33.479Z,1.93
2023-04-03T17:29:42.509Z,7.60
2023-04-03T17:31:51.500Z,2.47
2023-04-03T17:34:01.895Z,3.93
2023-04-03T17:36:11.304Z,5.43
2023-04-03T17:38:20.140Z,7.20
2023-04-03T17:40:30.407Z,5.37
2023-04-03T17:42:39.446Z,4.40
2023-04-03T17:44:48.231Z,3.97
2023-04-03T17:46:57.450Z,3.37
2023-04-03T17:49:06.756Z,7.83
2023-04-03T17:51:16.555Z,8.30
2023-04-03T17:53:27.976Z,6.67
2023-04-03T17:55:39.560Z,7.83
2023-04-03T17:57:48.570Z,6.30
2023-04-03T17:59:57.661Z,4.80
2023-04-03T18:02:09.228Z,3.53
2023-04-03T18:04:18.440Z,4.33
2023-04-03T18:06:29.688Z,5.57
2023-04-03T18:08:39.572Z,5.30
2023-04-03T18:10:50.405Z,5.97
2023-04-03T18:12:59.238Z,3.73
2023-04-03T18:15:08.852Z,4.93
2023-04-03T18:17:19.536Z,6.90
2023-04-03T18:19:30.052Z,26.77
2023-04-03T18:21:39.826Z,39.80
2023-04-03T18:23:50.957Z,36.60
2023-04-03T18:26:02.544Z,23.97
2023-04-03T18:28:11.770Z,11.00
2023-04-03T18:30:20.519Z,8.37
2023-04-03T18:32:29.660Z,8.30
2023-04-03T18:34:38.702Z,7.43
2023-04-03T18:36:47.923Z,7.97
2023-04-03T18:38:57.712Z,9.87
2023-04-03T18:41:10.878Z,7.20
2023-04-03T18:43:19.576Z,5.40
2023-04-03T18:45:28.459Z,12.00
2023-04-03T18:47:37.095Z,4.10
2023-04-03T18:49:46.054Z,11.37
2023-04-03T18:51:55.220Z,7.57
2023-04-03T18:54:05.292Z,21.37
2023-04-03T18:56:17.043Z,15.47
2023-04-03T18:58:26.564Z,10.33
2023-04-03T19:00:35.685Z,6.73
2023-04-03T19:02:44.863Z,13.33
2023-04-03T19:04:54.473Z,11.80
2023-04-03T19:07:06.388Z,9.03
2023-04-03T19:09:15.798Z,11.07
2023-04-03T19:11:25.904Z,8.43
2023-04-03T19:13:38.969Z,11.40
2023-04-03T19:15:59.098Z,3.83
2023-04-03T19:18:08.028Z,11.50
2023-04-03T19:20:17.344Z,8.90
2023-04-03T19:22:26.432Z,11.23
2023-04-03T19:24:36.043Z,14.80
2023-04-03T19:26:47.147Z,7.60
2023-04-03T19:28:55.934Z,7.13
2023-04-03T19:31:05.138Z,9.83
2023-04-03T19:33:13.978Z,14.33
2023-04-03T19:35:23.135Z,12.03
2023-04-03T19:37:32.033Z,11.13
2023-04-03T19:39:41.002Z,8.33
2023-04-03T19:41:51.643Z,9.60
2023-04-03T19:44:00.692Z,12.47
2023-04-03T19:46:09.855Z,13.50
2023-04-03T19:48:18.953Z,5.17
2023-04-03T19:50:27.597Z,10.43
2023-04-03T19:52:36.455Z,11.07
2023-04-03T19:54:45.261Z,5.50
2023-04-03T19:56:55.749Z,13.67
2023-04-03T19:59:04.663Z,13.77
2023-04-03T20:01:13.404Z,7.33
2023-04-03T20:03:22.796Z,10.97
2023-04-03T20:05:31.693Z,17.70
2023-04-03T20:07:40.750Z,11.60
2023-04-03T20:09:49.696Z,15.57
2023-04-03T20:12:01.457Z,13.00
2023-04-03T20:14:10.879Z,13.50
2023-04-03T20:16:22.564Z,9.87
2023-04-03T20:18:32.000Z,16.67
2023-04-03T20:20:42.988Z,13.97
2023-04-03T20:22:54.341Z,13.33
2023-04-03T20:25:06.327Z,14.33
2023-04-03T20:27:18.014Z,14.30
2023-04-03T20:29:27.498Z,9.70
2023-04-03T20:31:36.210Z,9.20
2023-04-03T20:33:44.984Z,7.33
2023-04-03T20:35:55.323Z,11.90
2023-04-03T20:38:07.165Z,17.73
2023-04-03T20:40:16.534Z,17.07
2023-04-03T20:42:27.988Z,13.13
2023-04-03T20:44:37.425Z,5.50
2023-04-03T20:46:53.376Z,11.53
2023-04-03T20:49:02.694Z,8.43
2023-04-03T20:51:12.472Z,5.67
2023-04-03T20:53:21.517Z,10.87
2023-04-03T20:55:30.517Z,5.53
2023-04-03T20:57:40.848Z,12.40
2023-04-03T20:59:50.165Z,7.83
2023-04-03T21:01:58.690Z,3.87
2023-04-03T21:04:09.634Z,15.70
2023-04-03T21:06:37.771Z,5.73
2023-04-03T21:09:07.183Z,4.73
2023-04-03T21:11:34.193Z,12.00
2023-04-03T21:14:02.663Z,8.27
2023-04-03T21:16:11.517Z,6.83
2023-04-03T21:18:38.556Z,10.17
2023-04-03T21:20:49.000Z,10.57
2023-04-03T21:22:57.797Z,10.20
2023-04-03T21:25:07.351Z,10.50
2023-04-03T21:27:16.067Z,9.20
2023-04-03T21:29:25.095Z,13.17
2023-04-03T21:31:48.934Z,15.83
2023-04-03T21:33:58.442Z,8.47
2023-04-03T21:36:09.220Z,11.87
2023-04-03T21:38:18.153Z,12.93
2023-04-03T21:40:27.166Z,10.17
2023-04-03T21:42:37.160Z,11.33
2023-04-03T21:44:48.919Z,14.17
2023-04-03T21:46:57.935Z,11.17
2023-04-03T21:49:07.589Z,14.43
2023-04-03T21:51:19.237Z,11.57
2023-04-03T21:53:34.162Z,10.80
2023-04-03T21:55:44.176Z,17.37
2023-04-03T21:57:54.060Z,7.57
2023-04-03T22:00:04.956Z,16.47
2023-04-03T22:02:14.562Z,19.23
2023-04-03T22:04:23.621Z,6.97
2023-04-03T22:06:34.649Z,12.30
2023-04-03T22:08:43.632Z,10.10
2023-04-03T22:10:53.516Z,10.27
2023-04-03T22:13:03.334Z,8.60
2023-04-03T22:15:19.104Z,6.97
2023-04-03T22:17:28.979Z,8.77
2023-04-03T22:19:38.181Z,8.67
2023-04-03T22:21:48.370Z,11.73
2023-04-03T22:23:57.107Z,7.73
2023-04-03T22:26:06.495Z,9.60
2023-04-03T22:28:16.612Z,10.37
2023-04-03T22:30:26.453Z,11.17
2023-04-03T22:32:35.353Z,12.07
2023-04-03T22:34:44.749Z,8.60
2023-04-03T22:36:54.963Z,7.13
2023-04-03T22:39:07.137Z,7.83
2023-04-03T22:41:16.220Z,9.97
2023-04-03T22:43:25.446Z,10.23
2023-04-03T22:45:34.040Z,8.53
2023-04-03T22:47:43.575Z,9.00
2023-04-03T22:49:52.318Z,9.43
2023-04-03T22:52:02.562Z,9.17
2023-04-03T22:54:11.488Z,12.10
2023-04-03T22:56:23.920Z,8.27
2023-04-03T22:58:33.349Z,5.80
2023-04-03T23:00:42.484Z,18.47
2023-04-03T23:02:52.022Z,7.27
2023-04-03T23:05:00.671Z,17.80
2023-04-03T23:07:11.197Z,8.33
2023-04-03T23:09:19.829Z,8.63
2023-04-03T23:11:29.034Z,11.40
2023-04-03T23:13:38.537Z,7.27
2023-04-03T23:15:47.990Z,10.60
2023-04-03T23:17:57.444Z,5.70
2023-04-03T23:20:06.654Z,6.93
2023-04-03T23:22:17.667Z,6.83
2023-04-03T23:24:26.261Z,5.13
2023-04-03T23:26:35.224Z,4.10
2023-04-03T23:28:44.256Z,8.20
2023-04-03T23:30:59.367Z,4.00
2023-04-03T23:33:09.784Z,4.30
2023-04-03T23:35:19.613Z,9.63
2023-04-03T23:37:29.800Z,3.70
2023-04-03T23:39:38.460Z,4.97
2023-04-03T23:41:48.140Z,4.20
2023-04-03T23:43:57.735Z,4.93
2023-04-03T23:46:06.495Z,5.57
2023-04-03T23:48:15.374Z,3.27
2023-04-03T23:50:24.158Z,5.10
2023-04-03T23:52:34.530Z,4.33
2023-04-03T23:54:43.356Z,4.37
2023-04-03T23:56:52.490Z,5.20
2023-04-03T23:59:01.362Z,4.63
